Jasper — TCTL2 — position and weather

sailwx.info

Track history (hours):
 
Tides and Currents Weather Stations Pressure Air Temp Water Temp Dewpoint Dewpoint Depression Visibility Wind Speed Wind Dir Waves Ship Positions

Jasper

Last reported at 2017-Apr-08 01:17 UTC. Time now 2017-Apr-30 20:38 UTC.
Position N 40°56' E 029°02'.
Warning: this ship's position is 22 days out of date.

Length 94 m; draft 6.7 m.

Type: Ship. MMSI: 271002689.

Date/timePositionNaut miles runAvg speedWind from/ knotsBaromVisibWave heightAir tempDewpointWater temp
2017-Apr-08 01:17N 40°56' E 029°02'2 7.7
2017-Apr-08 00:58N 40°55' E 029°04'4 8.4
2017-Apr-08 00:30N 40°53' E 029°09'2 4.0
2017-Apr-07 23:54N 40°52' E 029°12'0 0.1
2017-Apr-07 23:29N 40°52' E 029°12'0 0.0
2017-Apr-07 22:56N 40°52' E 029°12'0 0.0
2017-Apr-07 22:14N 40°52' E 029°12'0 0.0
2017-Apr-07 21:54N 40°52' E 029°12'0 0.0
2017-Apr-07 21:13N 40°52' E 029°12'0 0.0
2017-Apr-07 20:58N 40°52' E 029°12'0 0.0
2017-Apr-07 20:23N 40°52' E 029°12'0 0.0
2017-Apr-07 19:54N 40°52' E 029°12'0 0.0
2017-Apr-07 19:29N 40°52' E 029°12'0 0.0
2017-Apr-07 18:56N 40°52' E 029°12'0 0.0
2017-Apr-07 18:30N 40°52' E 029°12'0 0.0
2017-Apr-07 17:59N 40°52' E 029°12'0 0.0
2017-Apr-07 17:22N 40°52' E 029°12'0 0.0
2017-Apr-07 16:55N 40°52' E 029°12'0 0.0
2017-Apr-07 16:30N 40°52' E 029°12'0 0.0
2017-Apr-07 15:59N 40°52' E 029°12'0 0.0
2017-Apr-07 15:27N 40°52' E 029°12'0 0.0
2017-Apr-07 14:55N 40°52' E 029°12'0 0.1
2017-Apr-07 13:56N 40°52' E 029°12'0 0.1
2017-Apr-07 13:24N 40°52' E 029°12'0 0.0
2017-Apr-07 12:54N 40°52' E 029°12'0 0.0
2017-Apr-07 12:29N 40°52' E 029°12'0 0.0
2017-Apr-07 11:12N 40°52' E 029°12'0 0.0
2017-Apr-07 09:50N 40°52' E 029°12'0 0.1
2017-Apr-07 09:26N 40°52' E 029°12'0 0.0
2017-Apr-07 08:46N 40°52' E 029°12'0 0.0
2017-Apr-07 08:17N 40°52' E 029°12'0 0.1
2017-Apr-07 07:50N 40°52' E 029°12'0 0.0
2017-Apr-07 07:27N 40°52' E 029°12'0 0.1
2017-Apr-07 06:58N 40°52' E 029°12'0 0.0
2017-Apr-07 06:30N 40°52' E 029°12'0 0.0
2017-Apr-07 05:56N 40°52' E 029°12'0 0.0
2017-Apr-07 05:25N 40°52' E 029°12'0 0.0
2017-Apr-07 04:55N 40°52' E 029°12'0 0.0
2017-Apr-07 04:04N 40°52' E 029°12'0 0.0
2017-Apr-07 03:58N 40°52' E 029°12'0 0.0
2017-Apr-07 03:26N 40°52' E 029°12'0 0.0
2017-Apr-07 02:51N 40°52' E 029°12'0 0.0
2017-Apr-07 02:21N 40°52' E 029°12'0 0.0
2017-Apr-07 01:50N 40°52' E 029°12'0 0.0
2017-Apr-07 01:13N 40°52' E 029°12'0 0.0
2017-Apr-07 00:46N 40°52' E 029°12'0 0.0
2017-Apr-07 00:27N 40°52' E 029°12'0 0.0
2017-Apr-06 23:56N 40°52' E 029°12'0 0.1
2017-Apr-06 23:27N 40°52' E 029°12'1 1.6
2017-Apr-06 23:00N 40°51' E 029°12'4 7.5
2017-Apr-06 22:30N 40°48' E 029°13'4 8.4
2017-Apr-06 22:00N 40°46' E 029°17'  
Track history (hours):
 
Tides and Currents Weather Stations Pressure Air Temp Water Temp Dewpoint Dewpoint Depression Visibility Wind Speed Wind Dir Waves Ship Positions

Jasper

Last reported at 2017-Apr-08 01:17 UTC. Time now 2017-Apr-30 20:38 UTC.
Position N 40°56' E 029°02'.
Warning: this ship's position is 22 days out of date.

Length 94 m; draft 6.7 m.

Type: Ship. MMSI: 271002689.

Date/timePositionNaut miles runAvg speedWind from/ knotsBaromVisibWave heightAir tempDewpointWater temp
2017-Apr-08 01:17N 40°56' E 029°02'2 7.7
2017-Apr-08 00:58N 40°55' E 029°04'4 8.4
2017-Apr-08 00:30N 40°53' E 029°09'2 4.0
2017-Apr-07 23:54N 40°52' E 029°12'0 0.1
2017-Apr-07 23:29N 40°52' E 029°12'0 0.0
2017-Apr-07 22:56N 40°52' E 029°12'0 0.0
2017-Apr-07 22:14N 40°52' E 029°12'0 0.0
2017-Apr-07 21:54N 40°52' E 029°12'0 0.0
2017-Apr-07 21:13N 40°52' E 029°12'0 0.0
2017-Apr-07 20:58N 40°52' E 029°12'0 0.0
2017-Apr-07 20:23N 40°52' E 029°12'0 0.0
2017-Apr-07 19:54N 40°52' E 029°12'0 0.0
2017-Apr-07 19:29N 40°52' E 029°12'0 0.0
2017-Apr-07 18:56N 40°52' E 029°12'0 0.0
2017-Apr-07 18:30N 40°52' E 029°12'0 0.0
2017-Apr-07 17:59N 40°52' E 029°12'0 0.0
2017-Apr-07 17:22N 40°52' E 029°12'0 0.0
2017-Apr-07 16:55N 40°52' E 029°12'0 0.0
2017-Apr-07 16:30N 40°52' E 029°12'0 0.0
2017-Apr-07 15:59N 40°52' E 029°12'0 0.0
2017-Apr-07 15:27N 40°52' E 029°12'0 0.0
2017-Apr-07 14:55N 40°52' E 029°12'0 0.1
2017-Apr-07 13:56N 40°52' E 029°12'0 0.1
2017-Apr-07 13:24N 40°52' E 029°12'0 0.0
2017-Apr-07 12:54N 40°52' E 029°12'0 0.0
2017-Apr-07 12:29N 40°52' E 029°12'0 0.0
2017-Apr-07 11:12N 40°52' E 029°12'0 0.0
2017-Apr-07 09:50N 40°52' E 029°12'0 0.1
2017-Apr-07 09:26N 40°52' E 029°12'0 0.0
2017-Apr-07 08:46N 40°52' E 029°12'0 0.0
2017-Apr-07 08:17N 40°52' E 029°12'0 0.1
2017-Apr-07 07:50N 40°52' E 029°12'0 0.0
2017-Apr-07 07:27N 40°52' E 029°12'0 0.1
2017-Apr-07 06:58N 40°52' E 029°12'0 0.0
2017-Apr-07 06:30N 40°52' E 029°12'0 0.0
2017-Apr-07 05:56N 40°52' E 029°12'0 0.0
2017-Apr-07 05:25N 40°52' E 029°12'0 0.0
2017-Apr-07 04:55N 40°52' E 029°12'0 0.0
2017-Apr-07 04:04N 40°52' E 029°12'0 0.0
2017-Apr-07 03:58N 40°52' E 029°12'0 0.0
2017-Apr-07 03:26N 40°52' E 029°12'0 0.0
2017-Apr-07 02:51N 40°52' E 029°12'0 0.0
2017-Apr-07 02:21N 40°52' E 029°12'0 0.0
2017-Apr-07 01:50N 40°52' E 029°12'0 0.0
2017-Apr-07 01:13N 40°52' E 029°12'0 0.0
2017-Apr-07 00:46N 40°52' E 029°12'0 0.0
2017-Apr-07 00:27N 40°52' E 029°12'0 0.0
2017-Apr-06 23:56N 40°52' E 029°12'0 0.1
2017-Apr-06 23:27N 40°52' E 029°12'1 1.6
2017-Apr-06 23:00N 40°51' E 029°12'4 7.5
2017-Apr-06 22:30N 40°48' E 029°13'4 8.4
2017-Apr-06 22:00N 40°46' E 029°17'  

Dump ship's entire track history